createdAt,value
2019-02-14T00:00:19.159Z,2.36
2019-02-14T00:02:48.200Z,2.28
2019-02-14T00:05:17.312Z,2.20
2019-02-14T00:07:46.418Z,2.12
2019-02-14T00:10:15.698Z,2.06
2019-02-14T00:12:44.735Z,1.99
2019-02-14T00:15:13.937Z,1.92
2019-02-14T00:17:43.575Z,1.85
2019-02-14T00:20:12.966Z,1.94
2019-02-14T00:22:42.003Z,2.08
2019-02-14T00:25:11.739Z,2.13
2019-02-14T00:27:40.768Z,2.41
2019-02-14T00:30:10.153Z,2.41
2019-02-14T00:32:39.478Z,2.30
2019-02-14T00:35:08.923Z,2.26
2019-02-14T00:37:37.936Z,2.24
2019-02-14T00:40:07.486Z,2.21
2019-02-14T00:42:36.864Z,2.16
2019-02-14T00:45:06.339Z,2.12
2019-02-14T00:47:35.635Z,2.06
2019-02-14T00:50:05.245Z,1.99
2019-02-14T00:52:34.266Z,1.85
2019-02-14T00:55:03.669Z,1.76
2019-02-14T00:57:32.762Z,1.71
2019-02-14T01:00:01.845Z,1.70
2019-02-14T01:02:30.888Z,1.73
2019-02-14T01:04:59.991Z,1.72
2019-02-14T01:07:29.029Z,1.62
2019-02-14T01:09:58.028Z,1.50
2019-02-14T01:12:27.125Z,1.47
2019-02-14T01:14:56.438Z,1.31
2019-02-14T01:17:25.487Z,1.23
2019-02-14T01:19:54.502Z,1.11
2019-02-14T01:22:24.420Z,1.08
2019-02-14T01:24:53.787Z,1.04
2019-02-14T01:27:23.113Z,1.06
2019-02-14T01:29:52.138Z,1.12
2019-02-14T01:32:21.646Z,1.18
2019-02-14T01:34:50.755Z,1.18
2019-02-14T01:37:20.200Z,1.17
2019-02-14T01:39:49.259Z,1.15
2019-02-14T01:42:18.663Z,1.14
2019-02-14T01:44:47.729Z,1.12
2019-02-14T01:47:16.734Z,1.07
2019-02-14T01:49:46.176Z,1.01
2019-02-14T01:52:15.209Z,0.95
2019-02-14T01:54:44.249Z,0.94
2019-02-14T01:57:13.241Z,0.96
2019-02-14T01:59:42.625Z,1.03
2019-02-14T02:02:11.659Z,1.02
2019-02-14T02:04:40.899Z,1.00
2019-02-14T02:07:10.195Z,1.02
2019-02-14T02:09:39.320Z,0.98
2019-02-14T02:12:08.324Z,0.95
2019-02-14T02:14:37.335Z,1.00
2019-02-14T02:17:06.342Z,1.01
2019-02-14T02:19:35.759Z,0.96
2019-02-14T02:22:04.783Z,0.97
2019-02-14T02:24:34.019Z,0.92
2019-02-14T02:27:03.816Z,0.95
2019-02-14T02:29:32.840Z,1.03
2019-02-14T02:32:01.859Z,1.10
2019-02-14T02:34:30.991Z,1.18
2019-02-14T02:37:00.039Z,1.28
2019-02-14T02:39:29.192Z,1.24
2019-02-14T02:41:58.189Z,1.30
2019-02-14T02:44:27.243Z,1.35
2019-02-14T02:46:56.550Z,1.32
2019-02-14T02:49:25.884Z,1.27
2019-02-14T02:51:54.913Z,1.21
2019-02-14T02:54:24.081Z,1.19
2019-02-14T02:56:53.182Z,1.15
2019-02-14T02:59:22.245Z,1.11
2019-02-14T03:01:51.309Z,1.20
2019-02-14T03:04:20.371Z,1.24
2019-02-14T03:06:49.471Z,1.20
2019-02-14T03:09:18.517Z,1.15
2019-02-14T03:11:47.577Z,1.15
2019-02-14T03:14:16.606Z,1.16
2019-02-14T03:16:45.638Z,1.16
2019-02-14T03:19:14.666Z,1.21
2019-02-14T03:21:43.915Z,1.32
2019-02-14T03:24:13.239Z,1.32
2019-02-14T03:26:42.277Z,1.30
2019-02-14T03:29:11.315Z,1.34
2019-02-14T03:31:40.626Z,1.30
2019-02-14T03:34:09.683Z,1.28
2019-02-14T03:36:38.743Z,1.20
2019-02-14T03:39:08.363Z,1.05
2019-02-14T03:41:37.731Z,1.01
2019-02-14T03:44:07.029Z,0.98
2019-02-14T03:46:36.106Z,1.01
2019-02-14T03:49:05.285Z,1.03
2019-02-14T03:51:34.629Z,1.01
2019-02-14T03:54:03.991Z,1.02
2019-02-14T03:56:33.017Z,0.98
2019-02-14T03:59:02.073Z,0.96
2019-02-14T04:01:31.099Z,0.96
2019-02-14T04:04:00.479Z,1.02
2019-02-14T04:06:29.509Z,1.00
2019-02-14T04:08:58.533Z,1.00
2019-02-14T04:11:27.579Z,0.97
2019-02-14T04:13:56.911Z,0.99
2019-02-14T04:16:25.957Z,1.02
2019-02-14T04:18:55.771Z,1.00
2019-02-14T04:21:24.775Z,1.36
2019-02-14T04:23:53.789Z,1.62
2019-02-14T04:26:23.247Z,1.96
2019-02-14T04:28:52.612Z,2.08
2019-02-14T04:31:21.631Z,2.19
2019-02-14T04:33:51.309Z,2.16
2019-02-14T04:36:20.427Z,2.21
2019-02-14T04:38:50.901Z,2.33
2019-02-14T04:41:19.931Z,2.46
2019-02-14T04:43:48.986Z,2.55
2019-02-14T04:46:18.448Z,2.61
2019-02-14T04:48:47.529Z,2.56
2019-02-14T04:51:16.545Z,2.49
2019-02-14T04:53:45.617Z,2.41
2019-02-14T04:56:15.020Z,2.18
2019-02-14T04:58:44.402Z,1.99
2019-02-14T05:01:13.756Z,1.88
2019-02-14T05:03:43.137Z,1.83
2019-02-14T05:06:12.651Z,1.76
2019-02-14T05:08:41.779Z,1.67
2019-02-14T05:11:11.167Z,1.57
2019-02-14T05:13:40.192Z,1.45
2019-02-14T05:16:09.208Z,1.32
2019-02-14T05:18:38.819Z,1.22
2019-02-14T05:21:08.230Z,1.19
2019-02-14T05:23:37.316Z,1.18
2019-02-14T05:26:06.359Z,1.18
2019-02-14T05:28:35.735Z,1.02
2019-02-14T05:31:04.755Z,1.00
2019-02-14T05:33:33.795Z,0.92
2019-02-14T05:36:02.856Z,0.88
2019-02-14T05:38:31.946Z,0.83
2019-02-14T05:41:00.949Z,0.76
2019-02-14T05:43:30.608Z,0.74
2019-02-14T05:45:59.721Z,0.71
2019-02-14T05:48:28.761Z,0.72
2019-02-14T05:50:57.807Z,0.64
2019-02-14T05:53:27.086Z,0.59
2019-02-14T05:55:56.403Z,0.58
2019-02-14T05:58:25.529Z,0.52
2019-02-14T06:00:54.699Z,0.51
2019-02-14T06:03:24.299Z,0.47
2019-02-14T06:05:53.356Z,0.43
2019-02-14T06:08:22.400Z,0.38
2019-02-14T06:10:51.739Z,0.33
2019-02-14T06:13:20.789Z,0.30
2019-02-14T06:15:50.211Z,0.28
2019-02-14T06:18:19.275Z,0.23
2019-02-14T06:20:48.371Z,0.20
2019-02-14T06:23:17.675Z,0.16
2019-02-14T06:25:46.671Z,0.12
2019-02-14T06:28:15.981Z,0.02
2019-02-14T06:30:45.115Z,0.06
2019-02-14T06:33:14.229Z,-0.03
2019-02-14T06:35:43.450Z,-0.02
2019-02-14T06:38:12.472Z,-0.03
2019-02-14T06:40:41.499Z,0.01
2019-02-14T06:43:10.894Z,0.02
2019-02-14T06:45:40.358Z,0.03
2019-02-14T06:48:09.375Z,0.16
2019-02-14T06:50:38.394Z,0.34
2019-02-14T06:53:07.597Z,0.34
2019-02-14T06:55:36.953Z,0.31
2019-02-14T06:58:06.196Z,0.28
2019-02-14T07:00:35.375Z,0.27
2019-02-14T07:03:04.774Z,0.22
2019-02-14T07:05:33.955Z,0.25
2019-02-14T07:08:03.592Z,0.28
2019-02-14T07:10:32.921Z,0.41
2019-02-14T07:13:01.999Z,0.44
2019-02-14T07:15:31.791Z,0.48
2019-02-14T07:18:01.502Z,0.62
2019-02-14T07:20:31.025Z,0.86
2019-02-14T07:23:00.927Z,1.00
2019-02-14T07:25:30.238Z,1.11
2019-02-14T07:28:00.161Z,1.12
2019-02-14T07:30:29.439Z,1.15
2019-02-14T07:32:59.847Z,1.30
2019-02-14T07:35:29.235Z,1.33
2019-02-14T07:37:59.110Z,1.28
2019-02-14T07:40:29.796Z,1.29
2019-02-14T07:42:59.233Z,1.42
2019-02-14T07:45:28.569Z,1.47
2019-02-14T07:47:58.127Z,1.47
2019-02-14T07:50:27.870Z,1.55
2019-02-14T07:52:57.275Z,1.67
2019-02-14T07:55:27.239Z,1.78
2019-02-14T07:57:56.701Z,1.77
2019-02-14T08:00:27.285Z,1.78
2019-02-14T08:02:56.526Z,1.95
2019-02-14T08:05:26.042Z,1.99
2019-02-14T08:07:55.359Z,2.06
2019-02-14T08:10:24.699Z,2.10
2019-02-14T08:12:54.220Z,2.14
2019-02-14T08:15:23.623Z,2.20
2019-02-14T08:17:52.776Z,2.36
2019-02-14T08:20:22.130Z,2.46
2019-02-14T08:22:51.457Z,2.51
2019-02-14T08:25:21.567Z,2.59
2019-02-14T08:27:50.753Z,2.66
2019-02-14T08:30:19.943Z,2.73
2019-02-14T08:32:49.760Z,2.84
2019-02-14T08:35:19.069Z,3.02
2019-02-14T08:37:48.297Z,3.08
2019-02-14T08:40:20.411Z,3.19
2019-02-14T08:42:50.245Z,3.24
2019-02-14T08:45:19.507Z,3.39
2019-02-14T08:47:49.403Z,3.59
2019-02-14T08:50:18.623Z,3.79
2019-02-14T08:52:47.749Z,4.18
2019-02-14T08:55:17.342Z,4.71
2019-02-14T08:57:46.394Z,5.86
2019-02-14T09:00:15.958Z,7.08
2019-02-14T09:02:45.267Z,7.26
2019-02-14T09:05:15.006Z,7.61
2019-02-14T09:07:44.502Z,8.33
2019-02-14T09:10:14.388Z,8.42
2019-02-14T09:12:43.586Z,9.38
2019-02-14T09:15:13.472Z,10.00
2019-02-14T09:17:42.666Z,9.86
2019-02-14T09:20:13.524Z,10.27
2019-02-14T09:22:43.314Z,10.76
2019-02-14T09:25:12.849Z,11.83
2019-02-14T09:27:43.033Z,11.45
2019-02-14T09:30:12.765Z,11.25
2019-02-14T09:32:42.229Z,11.70
2019-02-14T09:35:12.011Z,11.84
2019-02-14T09:37:42.021Z,12.06
2019-02-14T09:40:12.697Z,13.38
2019-02-14T09:42:42.327Z,13.42
2019-02-14T09:45:12.449Z,13.75
2019-02-14T09:47:41.485Z,13.82
2019-02-14T09:50:11.645Z,14.56
2019-02-14T09:52:41.442Z,14.38
2019-02-14T09:55:12.278Z,15.04
2019-02-14T09:57:41.331Z,15.38
2019-02-14T10:00:13.390Z,15.42
2019-02-14T10:02:42.640Z,16.40
2019-02-14T10:05:12.738Z,16.38
2019-02-14T10:07:42.225Z,15.40
2019-02-14T10:10:14.501Z,15.16
2019-02-14T10:12:43.542Z,15.60
2019-02-14T10:15:22.123Z,15.56
2019-02-14T10:17:51.614Z,14.71
2019-02-14T10:20:20.864Z,15.83
2019-02-14T10:22:50.902Z,15.66
2019-02-14T10:25:20.332Z,15.64
2019-02-14T10:27:49.742Z,16.65
2019-02-14T10:30:19.714Z,17.17
2019-02-14T10:32:48.730Z,18.96
2019-02-14T10:35:17.856Z,18.45
2019-02-14T10:37:47.076Z,18.25
2019-02-14T10:40:16.786Z,18.41
2019-02-14T10:42:46.165Z,19.11
2019-02-14T10:45:16.488Z,19.62
2019-02-14T10:47:45.884Z,19.30
2019-02-14T10:50:14.884Z,19.34
2019-02-14T10:52:44.384Z,19.98
2019-02-14T10:55:14.009Z,20.29
2019-02-14T10:57:43.160Z,20.70
2019-02-14T11:00:18.531Z,21.06
2019-02-14T11:02:48.568Z,21.19
2019-02-14T11:05:18.933Z,20.97
2019-02-14T11:07:48.588Z,21.51
2019-02-14T11:10:18.231Z,21.37
2019-02-14T11:12:47.987Z,21.21
2019-02-14T11:15:19.218Z,21.46
2019-02-14T11:17:49.115Z,22.34
2019-02-14T11:20:18.751Z,21.38
2019-02-14T11:22:49.072Z,22.32
2019-02-14T11:25:24.413Z,22.90
2019-02-14T11:27:53.803Z,22.78
2019-02-14T11:30:23.027Z,21.94
2019-02-14T11:32:52.484Z,21.04
2019-02-14T11:35:21.726Z,22.83
2019-02-14T11:37:51.125Z,21.64
2019-02-14T11:40:20.267Z,21.83
2019-02-14T11:42:49.674Z,22.20
2019-02-14T11:45:20.005Z,21.43
2019-02-14T11:47:49.388Z,21.40
2019-02-14T11:50:18.847Z,20.07
2019-02-14T11:52:48.480Z,19.58
2019-02-14T11:55:17.790Z,19.66
2019-02-14T11:57:46.937Z,18.80
2019-02-14T12:00:23.330Z,19.37
2019-02-14T12:02:55.773Z,18.51
2019-02-14T12:05:23.838Z,19.57
2019-02-14T12:07:53.406Z,19.65
2019-02-14T12:10:22.696Z,19.85
2019-02-14T12:12:52.524Z,19.49
2019-02-14T12:15:23.424Z,19.62
2019-02-14T12:17:53.382Z,18.65
2019-02-14T12:20:22.918Z,18.77
2019-02-14T12:22:52.455Z,18.02
2019-02-14T12:25:22.372Z,17.83
2019-02-14T12:27:51.602Z,18.65
2019-02-14T12:30:20.728Z,19.37
2019-02-14T12:32:50.154Z,17.81
2019-02-14T12:35:20.029Z,18.05
2019-02-14T12:37:49.272Z,20.09
2019-02-14T12:40:18.804Z,20.78
2019-02-14T12:42:48.264Z,20.26
2019-02-14T12:45:20.457Z,20.43
2019-02-14T12:47:49.586Z,20.20
2019-02-14T12:50:18.698Z,20.50
2019-02-14T12:52:48.398Z,20.15
2019-02-14T12:55:17.869Z,19.43
2019-02-14T12:57:47.484Z,18.43
2019-02-14T13:00:18.837Z,18.46
2019-02-14T13:02:48.506Z,18.31
2019-02-14T13:05:17.949Z,17.53
2019-02-14T13:07:47.188Z,17.52
2019-02-14T13:10:16.522Z,17.31
2019-02-14T13:12:45.999Z,16.73
2019-02-14T13:15:19.866Z,17.19
2019-02-14T13:17:49.503Z,17.43
2019-02-14T13:20:18.606Z,17.18
2019-02-14T13:22:47.675Z,16.88
2019-02-14T13:25:17.053Z,16.93
2019-02-14T13:27:46.299Z,16.40
2019-02-14T13:30:17.798Z,16.44
2019-02-14T13:32:46.971Z,16.57
2019-02-14T13:35:16.418Z,16.54
2019-02-14T13:37:45.422Z,16.62
2019-02-14T13:40:16.119Z,16.71
2019-02-14T13:42:46.010Z,17.08
2019-02-14T13:45:16.655Z,16.74
2019-02-14T13:47:46.502Z,17.23
2019-02-14T13:50:16.153Z,17.09
2019-02-14T13:52:45.230Z,17.01
2019-02-14T13:55:14.441Z,17.29
2019-02-14T13:57:43.481Z,17.65
2019-02-14T14:00:19.089Z,17.64
2019-02-14T14:02:48.177Z,17.59
2019-02-14T14:05:17.294Z,18.15
2019-02-14T14:07:48.228Z,18.06
2019-02-14T14:10:17.566Z,18.60
2019-02-14T14:12:46.681Z,17.94
2019-02-14T14:15:15.981Z,18.49
2019-02-14T14:17:45.426Z,18.14
2019-02-14T14:20:16.443Z,18.17
2019-02-14T14:22:45.882Z,18.21
2019-02-14T14:25:14.927Z,18.13
2019-02-14T14:27:44.066Z,18.22
2019-02-14T14:30:14.022Z,18.66
2019-02-14T14:32:43.542Z,18.63
2019-02-14T14:35:12.838Z,17.95
2019-02-14T14:37:41.859Z,17.22
2019-02-14T14:40:11.710Z,17.81
2019-02-14T14:43:02.810Z,18.06
2019-02-14T14:45:49.854Z,17.38
2019-02-14T14:48:20.067Z,17.02
2019-02-14T14:50:49.960Z,17.19
2019-02-14T14:53:19.227Z,17.96
2019-02-14T14:55:50.468Z,17.23
2019-02-14T14:58:20.018Z,17.16
2019-02-14T15:00:49.187Z,16.89
2019-02-14T15:03:20.049Z,16.95
2019-02-14T15:05:49.657Z,16.19
2019-02-14T15:08:19.121Z,16.25
2019-02-14T15:10:52.347Z,16.50
2019-02-14T15:13:19.371Z,16.92
2019-02-14T15:15:49.270Z,17.08
2019-02-14T15:18:20.505Z,16.84
2019-02-14T15:20:50.514Z,16.91
2019-02-14T15:23:24.199Z,16.23
2019-02-14T15:25:53.543Z,15.90
2019-02-14T15:28:23.172Z,15.92
2019-02-14T15:30:52.296Z,16.22
2019-02-14T15:33:22.932Z,15.83
2019-02-14T15:35:52.572Z,15.74
2019-02-14T15:38:21.960Z,15.73
2019-02-14T15:40:52.794Z,15.36
2019-02-14T15:43:25.740Z,15.38
2019-02-14T15:45:55.070Z,15.01
2019-02-14T15:48:27.192Z,14.96
2019-02-14T15:51:01.483Z,14.84
2019-02-14T15:53:31.145Z,14.75
2019-02-14T15:56:00.697Z,14.58
2019-02-14T15:58:31.089Z,14.59
2019-02-14T16:01:02.228Z,14.39
2019-02-14T16:03:34.299Z,14.40
2019-02-14T16:06:04.502Z,14.19
2019-02-14T16:08:34.961Z,14.22
2019-02-14T16:11:04.827Z,14.05
2019-02-14T16:13:36.816Z,13.99
2019-02-14T16:16:06.669Z,13.90
2019-02-14T16:18:35.826Z,13.78
2019-02-14T16:21:07.813Z,13.72
2019-02-14T16:23:36.626Z,13.65
2019-02-14T16:26:06.753Z,13.53
2019-02-14T16:28:37.688Z,13.41
2019-02-14T16:31:07.277Z,13.34
2019-02-14T16:33:37.376Z,13.16
2019-02-14T16:36:07.824Z,12.82
2019-02-14T16:38:37.680Z,12.68
2019-02-14T16:41:07.405Z,12.60
2019-02-14T16:43:36.872Z,12.36
2019-02-14T16:46:06.138Z,12.19
2019-02-14T16:48:35.508Z,12.09
2019-02-14T16:51:05.080Z,11.90
2019-02-14T16:53:34.444Z,11.80
2019-02-14T16:56:03.734Z,11.63
2019-02-14T16:58:33.722Z,11.53
2019-02-14T17:01:02.971Z,11.34
2019-02-14T17:03:32.174Z,11.30
2019-02-14T17:06:01.251Z,11.15
2019-02-14T17:08:30.364Z,11.02
2019-02-14T17:10:59.638Z,10.94
2019-02-14T17:13:29.873Z,10.83
2019-02-14T17:15:58.894Z,10.76
2019-02-14T17:18:27.883Z,10.67
2019-02-14T17:20:57.096Z,10.65
2019-02-14T17:23:26.178Z,10.48
2019-02-14T17:25:56.112Z,10.48
2019-02-14T17:28:25.168Z,10.36
2019-02-14T17:30:54.842Z,10.32
2019-02-14T17:33:23.969Z,10.18
2019-02-14T17:35:53.098Z,10.10
2019-02-14T17:38:22.600Z,10.00
2019-02-14T17:40:52.163Z,9.96
2019-02-14T17:43:22.248Z,9.66
2019-02-14T17:45:51.487Z,9.52
2019-02-14T17:48:21.573Z,9.41
2019-02-14T17:50:51.192Z,9.38
2019-02-14T17:53:22.308Z,9.36
2019-02-14T17:55:51.726Z,9.33
2019-02-14T17:58:21.538Z,9.11
2019-02-14T18:00:52.712Z,8.94
2019-02-14T18:03:21.854Z,8.76
2019-02-14T18:05:51.341Z,8.63
2019-02-14T18:08:21.422Z,8.56
2019-02-14T18:10:54.854Z,8.64
2019-02-14T18:13:21.244Z,8.67
2019-02-14T18:15:50.281Z,8.78
2019-02-14T18:18:19.309Z,8.88
2019-02-14T18:20:48.364Z,8.92
2019-02-14T18:23:17.400Z,8.80
2019-02-14T18:25:46.695Z,8.54
2019-02-14T18:28:15.766Z,8.47
2019-02-14T18:30:45.472Z,8.43
2019-02-14T18:33:14.517Z,8.46
2019-02-14T18:35:43.890Z,8.36
2019-02-14T18:38:12.934Z,8.18
2019-02-14T18:40:42.287Z,8.06
2019-02-14T18:43:11.316Z,7.95
2019-02-14T18:45:40.364Z,7.85
2019-02-14T18:48:09.467Z,7.79
2019-02-14T18:50:38.583Z,7.74
2019-02-14T18:53:07.952Z,7.75
2019-02-14T18:55:37.098Z,7.68
2019-02-14T18:58:06.567Z,7.69
2019-02-14T19:00:36.399Z,7.70
2019-02-14T19:03:05.452Z,7.57
2019-02-14T19:05:34.610Z,7.35
2019-02-14T19:08:03.960Z,7.19
2019-02-14T19:10:35.742Z,7.23
2019-02-14T19:13:04.952Z,7.32
2019-02-14T19:15:34.406Z,7.36
2019-02-14T19:18:03.428Z,7.32
2019-02-14T19:20:32.471Z,7.32
2019-02-14T19:23:01.518Z,7.30
2019-02-14T19:25:30.833Z,7.23
2019-02-14T19:27:59.870Z,7.20
2019-02-14T19:30:29.272Z,7.18
2019-02-14T19:32:58.589Z,7.14
2019-02-14T19:35:27.832Z,7.13
2019-02-14T19:37:57.210Z,7.10
2019-02-14T19:40:26.628Z,7.00
2019-02-14T19:42:55.754Z,6.84
2019-02-14T19:45:24.923Z,6.67
2019-02-14T19:47:53.982Z,6.56
2019-02-14T19:50:23.436Z,6.76
2019-02-14T19:52:54.660Z,6.73
2019-02-14T19:55:23.766Z,6.72
2019-02-14T19:57:52.781Z,6.74
2019-02-14T20:00:21.822Z,6.71
2019-02-14T20:02:50.853Z,6.42
2019-02-14T20:05:19.867Z,6.56
2019-02-14T20:07:48.937Z,6.50
2019-02-14T20:10:18.312Z,6.44
2019-02-14T20:12:47.690Z,6.30
2019-02-14T20:15:16.962Z,6.24
2019-02-14T20:17:46.281Z,6.19
2019-02-14T20:20:15.898Z,6.06
2019-02-14T20:22:45.019Z,5.94
2019-02-14T20:25:15.008Z,5.93
2019-02-14T20:27:44.052Z,5.88
2019-02-14T20:30:13.050Z,5.89
2019-02-14T20:32:42.680Z,5.85
2019-02-14T20:35:11.720Z,5.73
2019-02-14T20:37:40.759Z,5.61
2019-02-14T20:40:09.946Z,5.48
2019-02-14T20:42:39.410Z,5.37
2019-02-14T20:45:09.185Z,5.23
2019-02-14T20:47:38.528Z,5.19
2019-02-14T20:50:09.094Z,5.02
2019-02-14T20:52:38.121Z,4.90
2019-02-14T20:55:08.683Z,4.88
2019-02-14T20:57:37.701Z,4.83
2019-02-14T21:00:09.658Z,4.82
2019-02-14T21:02:38.822Z,4.80
2019-02-14T21:05:08.074Z,4.81
2019-02-14T21:07:37.081Z,4.73
2019-02-14T21:10:06.138Z,4.67
2019-02-14T21:12:35.602Z,4.71
2019-02-14T21:15:05.547Z,4.66
2019-02-14T21:17:34.651Z,4.64
2019-02-14T21:20:03.741Z,4.58
2019-02-14T21:22:32.761Z,4.56
2019-02-14T21:25:01.825Z,4.48
2019-02-14T21:27:31.138Z,4.55
2019-02-14T21:30:00.366Z,4.50
2019-02-14T21:32:29.758Z,4.44
2019-02-14T21:34:58.778Z,4.39
2019-02-14T21:37:27.826Z,4.38
2019-02-14T21:39:57.402Z,4.30
2019-02-14T21:42:29.298Z,4.29
2019-02-14T21:44:57.284Z,4.30
2019-02-14T21:47:26.736Z,4.36
2019-02-14T21:49:55.780Z,4.30
2019-02-14T21:52:24.855Z,4.34
2019-02-14T21:54:54.308Z,4.30
2019-02-14T21:57:23.775Z,4.29
2019-02-14T21:59:52.814Z,4.24
2019-02-14T22:02:22.255Z,4.21
2019-02-14T22:04:51.284Z,4.22
2019-02-14T22:07:23.524Z,4.23
2019-02-14T22:09:52.527Z,4.26
2019-02-14T22:12:38.476Z,4.26
2019-02-14T22:14:52.349Z,4.24
2019-02-14T22:17:22.811Z,4.23
2019-02-14T22:19:52.290Z,4.22
2019-02-14T22:22:21.970Z,4.24
2019-02-14T22:24:51.059Z,4.14
2019-02-14T22:27:20.679Z,4.02
2019-02-14T22:29:49.701Z,3.97
2019-02-14T22:32:19.106Z,3.89
2019-02-14T22:34:49.045Z,3.93
2019-02-14T22:37:18.145Z,3.95
2019-02-14T22:39:47.623Z,3.96
2019-02-14T22:42:16.641Z,3.93
2019-02-14T22:44:46.046Z,3.87
2019-02-14T22:47:15.059Z,3.79
2019-02-14T22:49:44.182Z,3.72
2019-02-14T22:52:13.199Z,3.65
2019-02-14T22:54:42.604Z,3.65
2019-02-14T22:57:11.979Z,3.63
2019-02-14T22:59:41.399Z,3.62
2019-02-14T23:02:10.437Z,3.46
2019-02-14T23:04:39.453Z,3.39
2019-02-14T23:07:08.553Z,3.39
2019-02-14T23:09:38.284Z,3.36
2019-02-14T23:12:07.713Z,3.29
2019-02-14T23:14:36.721Z,3.29
2019-02-14T23:17:05.738Z,3.18
2019-02-14T23:19:35.271Z,3.05
2019-02-14T23:22:04.688Z,3.01
2019-02-14T23:24:33.754Z,2.98
2019-02-14T23:27:02.775Z,2.97
2019-02-14T23:29:32.173Z,2.90
2019-02-14T23:32:01.234Z,2.93
2019-02-14T23:34:30.269Z,2.90
2019-02-14T23:36:59.354Z,2.97
2019-02-14T23:39:28.755Z,3.04
2019-02-14T23:41:58.179Z,3.13
2019-02-14T23:44:27.781Z,3.28
2019-02-14T23:46:56.891Z,3.39
2019-02-14T23:49:25.881Z,3.50
2019-02-14T23:51:54.897Z,3.61
2019-02-14T23:54:23.947Z,3.68
2019-02-14T23:56:52.991Z,3.65
2019-02-14T23:59:22.333Z,3.54
